Olney, Texas
Current Conditions -  °F | °C
As of 8:10 AM on Thursday 18 Dec 2014 (Local Time) from KRPH Reporting Station
Haze Haze  
Wind Chill: 45°   Ceiling: 200
Heat Index: 45°   Visibility: 1mi
Dew Point: 45°   Wind: 0mph
Humidity: 100%   Direction: NA
Pressure: 30.1"   Gusts: NA
Location:  33.37°N, 98.75°W
Report Text: KRPH 181410Z AUTO 00000KT 1SM BR OVC002 07/07 A3010 RMK AO2 T00700070
Loading
Personal Weather Stations






























Interactive Weather Map New forecast layout! Learn more

10-Day Weather Forecast

Advertisements
Track Severe Weather on mobile